Time;durP1;ratioP1;P1;durP2;ratioP2;P2;SDS_P1;SDS_P2;PMS_P1;PMS_P2;Temp;Humidity;BMP_temperature;BMP_pressure;BME280_temperature;BME280_humidity;BME280_pressure;Samples;Min_cycle;Max_cycle;Signal;HPM_P1;HPM_P2
2020/12/11 05:02:56;;;;;;;29.03;20.60;;;1.10;99.90;;;;;;4956955;29;20462;-68
2020/12/11 05:05:22;;;;;;;27.57;19.33;;;1.10;99.90;;;;;;4958170;29;20447;-67
2020/12/11 05:07:48;;;;;;;25.30;19.23;;;1.10;99.90;;;;;;4958036;29;20486;-69
2020/12/11 05:10:15;;;;;;;27.67;20.33;;;1.10;99.90;;;;;;4957059;29;20948;-67
2020/12/11 05:12:41;;;;;;;30.70;22.50;;;1.10;99.90;;;;;;4939081;29;20459;-69
2020/12/11 05:15:09;;;;;;;28.70;21.23;;;1.10;99.90;;;;;;4938301;29;20467;-71
2020/12/11 05:17:37;;;;;;;31.50;21.30;;;1.10;99.90;;;;;;4938398;29;20941;-70
2020/12/11 05:20:05;;;;;;;31.63;22.63;;;1.10;99.90;;;;;;4938206;29;20820;-69
2020/12/11 05:22:33;;;;;;;30.30;20.53;;;1.10;99.90;;;;;;4939359;29;20484;-70
2020/12/11 05:25:00;;;;;;;32.30;21.50;;;1.00;99.90;;;;;;4938333;29;20464;-69
2020/12/11 05:27:34;;;;;;;30.40;21.90;;;0.90;99.90;;;;;;4938359;29;20480;-69
2020/12/11 05:30:16;;;;;;;30.57;23.00;;;0.90;99.90;;;;;;4937568;29;20463;-68
2020/12/11 05:32:45;;;;;;;33.83;22.70;;;0.90;99.90;;;;;;4937734;29;20816;-68
2020/12/11 05:35:24;;;;;;;32.00;23.37;;;0.90;99.90;;;;;;4937783;29;20452;-68
2020/12/11 05:37:52;;;;;;;32.47;22.60;;;1.00;99.90;;;;;;4937772;29;20436;-68
2020/12/11 05:40:20;;;;;;;32.33;21.07;;;1.00;99.90;;;;;;4937384;29;20464;-68
2020/12/11 05:43:14;;;;;;;32.47;23.70;;;1.00;99.90;;;;;;4937140;29;20457;-68
2020/12/11 05:45:48;;;;;;;32.80;21.27;;;1.10;99.90;;;;;;4937680;29;20504;-69
2020/12/11 05:48:14;;;;;;;30.17;22.27;;;1.10;99.90;;;;;;4937445;29;20469;-65
2020/12/11 05:50:41;;;;;;;31.40;21.53;;;1.00;99.90;;;;;;4937182;29;20473;-70
2020/12/11 05:53:08;;;;;;;33.70;23.00;;;1.10;99.90;;;;;;4937085;29;20464;-70
2020/12/11 05:55:34;;;;;;;35.50;23.30;;;1.00;99.90;;;;;;4937314;29;20550;-70
2020/12/11 05:58:00;;;;;;;26.92;18.50;;;0.80;99.90;;;;;;4937162;29;20459;-66
2020/12/11 06:00:27;;;;;;;34.67;24.50;;;1.20;99.90;;;;;;4936989;29;20204;-65
2020/12/11 06:02:54;;;;;;;38.03;24.20;;;2.10;99.90;;;;;;4939724;29;20451;-64
2020/12/11 06:05:22;;;;;;;33.10;23.50;;;2.00;99.90;;;;;;4939344;29;20909;-70
2020/12/11 06:07:51;;;;;;;34.70;22.70;;;1.70;99.90;;;;;;4938002;29;20949;-70
2020/12/11 06:10:18;;;;;;;34.40;22.60;;;1.20;99.90;;;;;;4937376;29;20478;-67
2020/12/11 06:12:45;;;;;;;31.53;22.60;;;1.00;99.90;;;;;;4936976;29;20473;-69
2020/12/11 06:15:24;;;;;;;32.27;22.20;;;0.90;99.90;;;;;;4936954;29;20820;-68
2020/12/11 06:17:57;;;;;;;35.07;23.13;;;0.70;99.90;;;;;;4937381;29;20513;-68
2020/12/11 06:20:25;;;;;;;34.37;22.70;;;0.60;99.90;;;;;;4936621;29;20440;-68
2020/12/11 06:22:52;;;;;;;34.63;22.13;;;0.50;99.90;;;;;;4936846;29;20452;-68
2020/12/11 06:25:29;;;;;;;34.33;23.23;;;0.50;99.90;;;;;;4936864;29;20464;-68
2020/12/11 06:27:57;;;;;;;33.73;22.73;;;0.40;99.90;;;;;;4936662;29;20879;-68
2020/12/11 06:30:28;;;;;;;35.20;22.53;;;0.40;99.90;;;;;;4948407;29;20452;-67
2020/12/11 06:32:55;;;;;;;35.30;22.77;;;0.40;99.90;;;;;;4948128;29;20441;-68
2020/12/11 06:35:22;;;;;;;35.87;23.60;;;0.40;99.90;;;;;;4937025;29;20454;-68
2020/12/11 06:37:48;;;;;;;33.03;23.87;;;0.40;99.90;;;;;;4936960;29;20967;-68
2020/12/11 06:40:15;;;;;;;38.83;22.93;;;0.40;99.90;;;;;;4939639;29;20456;-67
2020/12/11 06:42:43;;;;;;;32.30;20.07;;;0.50;99.90;;;;;;4936852;29;20456;-66
2020/12/11 06:45:30;;;;;;;31.10;21.47;;;0.40;99.90;;;;;;4937300;29;20556;-66
2020/12/11 06:47:58;;;;;;;31.03;20.00;;;0.40;99.90;;;;;;4937005;29;20807;-66
2020/12/11 06:50:27;;;;;;;27.80;19.77;;;0.30;99.90;;;;;;4936720;29;20452;-66
2020/12/11 06:52:53;;;;;;;30.20;20.70;;;0.40;99.90;;;;;;4935686;29;20996;-66
2020/12/11 06:55:21;;;;;;;30.83;21.90;;;0.40;99.90;;;;;;4936498;29;20564;-66
2020/12/11 06:57:48;;;;;;;31.70;21.10;;;0.40;99.90;;;;;;4936513;29;20448;-66
2020/12/11 07:00:33;;;;;;;31.03;20.40;;;0.40;99.90;;;;;;4936466;29;20457;-67
2020/12/11 07:03:23;;;;;;;24.10;18.13;;;0.50;99.90;;;;;;4936463;29;20437;-65
2020/12/11 07:06:01;;;;;;;33.70;20.73;;;0.60;99.90;;;;;;4936793;29;20447;-65
2020/12/11 07:08:28;;;;;;;31.90;21.67;;;0.70;99.90;;;;;;4936714;29;20484;-66
2020/12/11 07:11:02;;;;;;;24.10;17.77;;;0.70;99.90;;;;;;4936668;29;20471;-67
2020/12/11 07:13:28;;;;;;;29.27;21.70;;;0.70;99.90;;;;;;4936463;29;20495;-67
2020/12/11 07:15:59;;;;;;;29.07;20.33;;;0.70;99.90;;;;;;4936206;29;20459;-66
2020/12/11 07:18:26;;;;;;;32.80;20.57;;;0.70;99.90;;;;;;4936226;29;20452;-66
2020/12/11 07:20:54;;;;;;;29.57;20.77;;;0.70;99.90;;;;;;4941739;29;20472;-67
2020/12/11 07:23:21;;;;;;;28.20;19.57;;;0.70;99.90;;;;;;4939677;29;20447;-66
2020/12/11 07:25:48;;;;;;;29.90;20.00;;;0.60;99.90;;;;;;4936692;29;20453;-66
2020/12/11 07:28:17;;;;;;;26.53;18.97;;;0.70;99.90;;;;;;4936656;29;20480;-67
2020/12/11 07:30:44;;;;;;;26.27;18.47;;;0.70;99.90;;;;;;4936430;29;21011;-67
2020/12/11 07:33:11;;;;;;;28.45;20.17;;;0.60;99.90;;;;;;4936047;29;20934;-67
2020/12/11 07:35:38;;;;;;;27.37;19.87;;;0.60;99.90;;;;;;4936389;29;20204;-67
2020/12/11 07:38:05;;;;;;;25.50;18.73;;;0.70;99.90;;;;;;4935970;29;20453;-67
2020/12/11 07:40:31;;;;;;;28.87;18.63;;;0.70;99.90;;;;;;4936284;29;20476;-66
2020/12/11 07:42:59;;;;;;;26.80;19.30;;;0.70;99.90;;;;;;4936416;29;20457;-66
2020/12/11 07:45:28;;;;;;;25.30;17.87;;;0.80;99.90;;;;;;4936706;29;20476;-66
2020/12/11 07:47:55;;;;;;;24.03;18.10;;;0.80;99.90;;;;;;4936322;29;20535;-66
2020/12/11 07:50:23;;;;;;;25.83;18.60;;;0.70;99.90;;;;;;4937063;29;20500;-67
2020/12/11 07:52:52;;;;;;;30.70;19.57;;;0.80;99.90;;;;;;4936897;29;20508;-66
2020/12/11 07:55:18;;;;;;;24.00;17.23;;;0.70;99.90;;;;;;4936691;29;20460;-67
2020/12/11 07:57:54;;;;;;;26.10;18.90;;;0.70;99.90;;;;;;4936317;29;20827;-67
2020/12/11 08:00:22;;;;;;;28.53;19.00;;;0.70;99.90;;;;;;4936850;29;20753;-66
2020/12/11 08:02:56;;;;;;;29.30;19.10;;;0.70;99.90;;;;;;4936388;29;20523;-68
2020/12/11 08:05:23;;;;;;;31.03;18.50;;;0.90;99.90;;;;;;4938308;29;20440;-66
2020/12/11 08:07:52;;;;;;;26.90;19.10;;;1.10;99.90;;;;;;4940096;29;20512;-67
2020/12/11 08:10:20;;;;;;;28.90;19.37;;;1.10;99.90;;;;;;4940243;29;20441;-67
2020/12/11 08:12:47;;;;;;;26.77;19.00;;;1.10;99.90;;;;;;4940107;29;20523;-66
2020/12/11 08:15:29;;;;;;;27.27;19.67;;;1.30;99.90;;;;;;4939990;29;20555;-67
2020/12/11 08:18:10;;;;;;;29.70;18.80;;;1.30;99.90;;;;;;4940141;29;20459;-66
2020/12/11 08:20:51;;;;;;;25.00;17.47;;;1.50;99.90;;;;;;4940365;29;20478;-66
2020/12/11 08:23:22;;;;;;;26.80;19.87;;;1.60;99.90;;;;;;4939779;29;20451;-66
2020/12/11 08:26:07;;;;;;;29.73;19.50;;;1.50;99.90;;;;;;4939836;29;20456;-67
2020/12/11 08:28:33;;;;;;;31.53;19.73;;;1.50;99.90;;;;;;4939768;29;20467;-67
2020/12/11 08:31:22;;;;;;;30.43;19.90;;;1.50;99.90;;;;;;4939115;29;20483;-67
2020/12/11 08:33:50;;;;;;;28.80;20.40;;;1.40;99.90;;;;;;4939199;29;20447;-67
2020/12/11 08:36:24;;;;;;;28.17;18.97;;;1.60;99.90;;;;;;4939216;29;20468;-67
2020/12/11 08:39:16;;;;;;;26.83;17.87;;;1.70;99.90;;;;;;4938928;29;20805;-66
2020/12/11 08:41:56;;;;;;;26.00;19.40;;;1.90;99.90;;;;;;4924995;28;20536;-67
2020/12/11 08:44:44;;;;;;;25.80;19.40;;;2.30;99.90;;;;;;4939089;29;20443;-68
2020/12/11 08:47:33;;;;;;;23.53;18.57;;;3.10;99.90;;;;;;4939112;29;20437;-67
2020/12/11 08:50:06;;;;;;;28.50;19.07;;;3.50;99.90;;;;;;4938531;29;20447;-67
2020/12/11 08:52:33;;;;;;;25.60;18.77;;;3.50;99.90;;;;;;4938936;29;20567;-68
2020/12/11 08:54:59;;;;;;;25.13;19.40;;;3.40;99.90;;;;;;4938709;29;20464;-66
2020/12/11 08:57:29;;;;;;;27.47;20.20;;;3.00;99.90;;;;;;4939412;29;20471;-66
2020/12/11 08:59:56;;;;;;;25.43;18.63;;;2.70;99.90;;;;;;4938897;29;20444;-66
2020/12/11 09:02:22;;;;;;;26.87;19.67;;;2.50;99.90;;;;;;4938569;29;20495;-66
2020/12/11 09:04:48;;;;;;;27.17;19.63;;;2.30;99.90;;;;;;4939047;29;20464;-66
2020/12/11 09:07:15;;;;;;;30.97;19.13;;;2.20;99.90;;;;;;4938561;29;20957;-66
2020/12/11 09:09:41;;;;;;;28.13;20.63;;;2.20;99.90;;;;;;4939077;29;20459;-66
2020/12/11 09:12:08;;;;;;;24.30;18.27;;;2.20;99.90;;;;;;4938992;29;20473;-66
2020/12/11 09:14:34;;;;;;;29.30;20.80;;;2.30;99.90;;;;;;4939764;29;20464;-66
2020/12/11 09:17:00;;;;;;;25.70;17.93;;;2.20;99.90;;;;;;4938539;29;20797;-66
2020/12/11 09:19:27;;;;;;;25.83;19.23;;;2.30;99.90;;;;;;4939873;29;20448;-66
2020/12/11 09:21:53;;;;;;;26.30;19.30;;;2.20;99.90;;;;;;4939869;29;20480;-66
2020/12/11 09:24:20;;;;;;;26.93;20.43;;;2.30;99.90;;;;;;4939691;29;20468;-66
2020/12/11 09:26:47;;;;;;;28.53;19.53;;;2.30;99.90;;;;;;4939905;29;20463;-66
2020/12/11 09:29:15;;;;;;;26.10;19.40;;;2.40;99.90;;;;;;4939452;29;20539;-66
2020/12/11 09:31:45;;;;;;;26.97;19.27;;;2.40;99.90;;;;;;4938990;29;20487;-66
2020/12/11 09:34:11;;;;;;;30.40;20.80;;;2.40;99.90;;;;;;4938916;29;20650;-67
2020/12/11 09:36:42;;;;;;;27.60;20.80;;;2.50;99.90;;;;;;4940633;29;20452;-67
2020/12/11 09:39:08;;;;;;;25.73;19.90;;;2.40;99.90;;;;;;4939277;29;20801;-67
2020/12/11 09:41:38;;;;;;;25.70;19.10;;;2.40;99.90;;;;;;4938798;29;20912;-67
2020/12/11 09:46:58;;;;;;;25.47;18.63;;;2.20;99.90;;;;;;4936104;29;20461;-67
2020/12/11 09:49:30;;;;;;;25.93;18.57;;;2.20;99.90;;;;;;4938611;29;20465;-66
2020/12/11 09:52:05;;;;;;;26.27;18.53;;;2.20;99.90;;;;;;4938141;29;20535;-66
2020/12/11 09:54:33;;;;;;;26.37;19.20;;;2.10;99.90;;;;;;4938217;29;20810;-67
2020/12/11 09:57:00;;;;;;;26.53;18.77;;;2.20;99.90;;;;;;4938044;29;20495;-66
2020/12/11 09:59:31;;;;;;;29.07;19.40;;;2.40;99.90;;;;;;4938103;29;20456;-67
2020/12/11 10:02:07;;;;;;;24.67;18.17;;;2.50;99.90;;;;;;4938004;29;20921;-67
2020/12/11 10:04:34;;;;;;;23.80;18.30;;;2.50;99.90;;;;;;4937699;29;20805;-67
2020/12/11 10:07:00;;;;;;;24.10;17.53;;;2.50;99.90;;;;;;4938039;29;20452;-66
2020/12/11 10:09:26;;;;;;;23.20;17.80;;;2.60;99.90;;;;;;4937587;29;20485;-70
2020/12/11 10:11:54;;;;;;;26.97;18.10;;;2.60;99.90;;;;;;4937652;29;20476;-68
2020/12/11 10:14:28;;;;;;;21.83;17.00;;;2.60;99.90;;;;;;4937443;29;20459;-67
2020/12/11 10:16:55;;;;;;;21.13;15.70;;;2.70;99.90;;;;;;4937709;29;20755;-67
2020/12/11 10:19:21;;;;;;;21.53;15.50;;;2.60;99.90;;;;;;4938686;29;20455;-67
2020/12/11 10:21:48;;;;;;;21.83;16.13;;;2.70;99.90;;;;;;4938421;29;20480;-66
2020/12/11 10:24:15;;;;;;;35.23;17.60;;;2.80;99.90;;;;;;4937636;29;20456;-66
2020/12/11 10:26:42;;;;;;;24.80;17.90;;;2.90;99.90;;;;;;4942469;29;20456;-67
2020/12/11 10:29:09;;;;;;;20.27;15.70;;;2.90;99.90;;;;;;4949981;29;20488;-68
2020/12/11 10:31:36;;;;;;;23.40;17.07;;;2.90;99.90;;;;;;4949693;29;20989;-67
2020/12/11 10:34:02;;;;;;;20.70;15.97;;;2.90;99.90;;;;;;4957468;29;20464;-68
2020/12/11 10:36:29;;;;;;;23.70;16.20;;;2.90;99.90;;;;;;4945552;29;20449;-67
2020/12/11 10:38:56;;;;;;;22.07;15.90;;;3.00;99.90;;;;;;4936990;29;20433;-67
2020/12/11 10:41:23;;;;;;;23.33;16.70;;;2.90;99.90;;;;;;4937451;29;20491;-67
2020/12/11 10:43:49;;;;;;;21.67;15.07;;;2.90;99.90;;;;;;4937527;29;20453;-67
2020/12/11 10:46:15;;;;;;;19.63;16.10;;;3.00;99.90;;;;;;4936684;29;20949;-66
2020/12/11 10:48:43;;;;;;;22.07;15.73;;;3.10;99.90;;;;;;4936580;29;21001;-66
2020/12/11 10:51:11;;;;;;;17.93;14.40;;;3.10;99.90;;;;;;4936501;29;20476;-69
2020/12/11 10:53:37;;;;;;;18.73;15.10;;;3.00;99.90;;;;;;4936654;29;20832;-69
2020/12/11 10:56:05;;;;;;;19.93;14.77;;;3.00;99.90;;;;;;4937051;29;20452;-69
2020/12/11 10:58:31;;;;;;;19.90;15.07;;;2.90;99.90;;;;;;4936793;29;20448;-67
2020/12/11 11:00:57;;;;;;;20.50;15.60;;;2.90;99.90;;;;;;4936551;29;20495;-67
2020/12/11 11:03:27;;;;;;;18.60;13.87;;;2.80;99.90;;;;;;4936452;29;20453;-68
2020/12/11 11:05:55;;;;;;;18.03;14.27;;;2.90;99.90;;;;;;4936230;29;20453;-68
2020/12/11 11:08:31;;;;;;;18.70;13.50;;;2.90;99.90;;;;;;4935884;29;20607;-68
2020/12/11 11:10:57;;;;;;;19.27;14.57;;;3.00;99.90;;;;;;4936590;29;20472;-69
2020/12/11 11:13:29;;;;;;;17.77;14.30;;;3.10;99.90;;;;;;4936095;29;20489;-68
2020/12/11 11:15:57;;;;;;;20.73;13.63;;;3.10;99.90;;;;;;4936487;29;20444;-67
2020/12/11 11:27:04;;;;;;;18.43;13.63;;;3.10;99.90;;;;;;4936150;29;20429;-68
2020/12/11 11:29:31;;;;;;;17.97;14.47;;;3.20;99.90;;;;;;4936221;29;20471;-69
2020/12/11 11:31:57;;;;;;;20.33;15.53;;;3.20;99.90;;;;;;4936552;29;20480;-68
2020/12/11 11:34:24;;;;;;;19.40;14.67;;;3.30;99.90;;;;;;4936349;29;20475;-69
2020/12/11 11:36:51;;;;;;;20.70;14.70;;;3.40;99.90;;;;;;4935842;29;20941;-68
2020/12/11 11:39:18;;;;;;;19.47;14.03;;;3.50;99.90;;;;;;4936725;29;20459;-69
2020/12/11 11:41:47;;;;;;;19.53;15.33;;;3.60;99.90;;;;;;4939279;29;20495;-68
2020/12/11 11:44:44;;;;;;;18.50;14.63;;;3.80;99.90;;;;;;4939677;29;20824;-69
2020/12/11 11:47:10;;;;;;;18.17;15.00;;;3.90;99.90;;;;;;4939717;29;20778;-70
2020/12/11 11:49:50;;;;;;;22.93;15.30;;;4.20;99.90;;;;;;4939320;29;20787;-69
2020/12/11 11:52:21;;;;;;;16.93;13.03;;;4.30;99.90;;;;;;4939734;29;20507;-72
2020/12/11 11:54:47;;;;;;;19.93;14.30;;;4.30;99.90;;;;;;4939524;29;20495;-70
2020/12/11 11:57:13;;;;;;;20.93;15.30;;;4.30;99.90;;;;;;4939488;29;20460;-69
2020/12/11 11:59:39;;;;;;;17.57;13.87;;;4.30;99.90;;;;;;4939332;29;20456;-70
2020/12/11 12:02:07;;;;;;;19.03;14.70;;;4.40;99.90;;;;;;4939857;29;20826;-69
2020/12/11 12:04:33;;;;;;;17.47;14.57;;;4.40;99.90;;;;;;4940444;29;20452;-69
2020/12/11 12:06:59;;;;;;;20.80;15.87;;;4.30;99.90;;;;;;4939890;29;20459;-69
2020/12/11 12:09:26;;;;;;;21.53;16.33;;;4.20;99.90;;;;;;4940021;29;20480;-70
2020/12/11 12:11:52;;;;;;;19.60;15.40;;;4.30;99.90;;;;;;4939801;29;20476;-70
2020/12/11 12:14:19;;;;;;;17.87;15.23;;;4.30;99.90;;;;;;4940000;29;20867;-70
2020/12/11 12:16:46;;;;;;;18.20;14.67;;;4.40;99.90;;;;;;4939667;29;20486;-70
2020/12/11 12:19:16;;;;;;;19.53;15.67;;;4.40;99.90;;;;;;4939052;29;20953;-70
2020/12/11 12:22:16;;;;;;;19.10;14.77;;;4.40;99.90;;;;;;4939018;29;20973;-70
2020/12/11 12:27:37;;;;;;;19.10;15.30;;;4.30;99.90;;;;;;4939146;29;20432;-70
2020/12/11 12:30:03;;;;;;;29.10;16.90;;;4.40;99.90;;;;;;4939549;29;20445;-70
2020/12/11 12:32:35;;;;;;;23.20;15.80;;;4.40;99.90;;;;;;4938731;29;20476;-70
2020/12/11 12:35:02;;;;;;;25.07;17.37;;;4.50;99.90;;;;;;4939060;29;20459;-70
2020/12/11 12:37:41;;;;;;;22.33;16.63;;;4.60;99.90;;;;;;4939539;29;20465;-70
2020/12/11 12:45:40;;;;;;;20.27;15.37;;;4.50;99.90;;;;;;4938536;29;20929;-69
2020/12/11 12:48:06;;;;;;;19.07;16.27;;;4.70;99.90;;;;;;4938349;29;21041;-69
2020/12/11 12:50:33;;;;;;;19.90;15.67;;;4.80;99.90;;;;;;4937858;29;20461;-69
2020/12/11 12:52:59;;;;;;;18.87;14.90;;;4.60;99.90;;;;;;4938512;29;20458;-70
2020/12/11 12:55:40;;;;;;;20.17;15.53;;;4.50;99.90;;;;;;4938800;29;20458;-69
2020/12/11 12:58:06;;;;;;;18.20;14.17;;;4.50;99.90;;;;;;4939142;29;20440;-70
2020/12/11 13:00:39;;;;;;;23.03;15.27;;;4.40;99.90;;;;;;4938415;29;20868;-69
2020/12/11 13:05:39;;;;;;;18.20;15.03;;;4.40;99.90;;;;;;4938797;29;20423;-69
2020/12/11 13:08:06;;;;;;;20.43;16.30;;;4.20;99.90;;;;;;4938028;29;21027;-70
2020/12/11 13:10:33;;;;;;;22.33;16.13;;;4.10;99.90;;;;;;4938304;29;20479;-69
2020/12/11 13:12:59;;;;;;;24.63;18.10;;;4.10;99.90;;;;;;4937920;29;20833;-69
2020/12/11 13:15:26;;;;;;;24.93;15.63;;;4.00;99.90;;;;;;4938302;29;20453;-69
2020/12/11 13:17:52;;;;;;;21.17;15.73;;;4.00;99.90;;;;;;4938316;29;20472;-69
2020/12/11 13:20:26;;;;;;;20.90;16.20;;;3.90;99.90;;;;;;4938074;29;20463;-69
2020/12/11 13:26:13;;;;;;;23.37;15.97;;;3.90;99.90;;;;;;4904399;29;20440;-70
2020/12/11 13:28:40;;;;;;;25.90;17.27;;;3.90;99.90;;;;;;4938255;29;20477;-69
2020/12/11 13:31:06;;;;;;;20.63;14.90;;;3.90;99.90;;;;;;4937623;29;21053;-69
2020/12/11 13:33:33;;;;;;;22.63;16.20;;;3.80;99.90;;;;;;4937947;29;20496;-69
2020/12/11 13:35:59;;;;;;;17.13;14.13;;;3.80;99.90;;;;;;4938215;29;20452;-69
2020/12/11 13:38:25;;;;;;;20.17;15.67;;;3.80;99.90;;;;;;4938138;29;20452;-70
2020/12/11 13:40:53;;;;;;;17.43;14.30;;;3.80;99.90;;;;;;4938181;29;20480;-70
2020/12/11 13:43:19;;;;;;;19.90;15.57;;;3.90;99.90;;;;;;4938242;29;20456;-69
2020/12/11 13:45:45;;;;;;;19.33;15.03;;;3.90;99.90;;;;;;4938118;29;20457;-69
2020/12/11 13:48:12;;;;;;;20.10;15.00;;;4.00;99.90;;;;;;4937509;29;20482;-69
2020/12/11 13:50:38;;;;;;;20.57;15.23;;;4.00;99.90;;;;;;4937887;29;20483;-69
2020/12/11 13:53:04;;;;;;;19.63;15.70;;;4.00;99.90;;;;;;4937844;29;20452;-68
2020/12/11 13:55:30;;;;;;;21.37;15.17;;;4.10;99.90;;;;;;4938482;29;20460;-69
2020/12/11 13:57:57;;;;;;;22.13;16.10;;;4.20;99.90;;;;;;4938343;29;20459;-70
2020/12/11 14:00:23;;;;;;;21.97;16.40;;;4.20;99.90;;;;;;4937810;29;20864;-69
2020/12/11 14:02:50;;;;;;;26.50;16.23;;;4.10;99.90;;;;;;4937175;29;20481;-68
2020/12/11 14:05:16;;;;;;;21.90;15.63;;;4.10;99.90;;;;;;4937602;29;20463;-70
2020/12/11 14:07:42;;;;;;;19.00;15.03;;;4.10;99.90;;;;;;4937534;29;20822;-70
2020/12/11 14:10:08;;;;;;;20.60;15.30;;;4.10;99.90;;;;;;4937545;29;20468;-70
2020/12/11 14:12:36;;;;;;;21.80;15.57;;;4.20;99.90;;;;;;4937471;29;20487;-70
2020/12/11 14:15:04;;;;;;;23.13;15.07;;;4.10;99.90;;;;;;4937418;29;20453;-70
2020/12/11 14:17:44;;;;;;;25.77;16.13;;;4.00;99.90;;;;;;4937409;29;20807;-70
2020/12/11 14:23:04;;;;;;;18.17;13.97;;;4.10;99.90;;;;;;4922640;29;20443;-70
2020/12/11 14:25:31;;;;;;;22.17;17.10;;;4.10;99.90;;;;;;4936673;29;20440;-69
2020/12/11 14:27:57;;;;;;;23.00;16.00;;;4.10;99.90;;;;;;4937056;29;20514;-70
2020/12/11 14:30:25;;;;;;;20.53;15.80;;;4.20;99.90;;;;;;4936893;29;20458;-70
2020/12/11 14:32:51;;;;;;;28.30;17.40;;;4.20;99.90;;;;;;4937101;29;20456;-69
2020/12/11 14:35:18;;;;;;;18.37;14.87;;;4.20;99.90;;;;;;4937194;29;20554;-69
2020/12/11 14:37:46;;;;;;;20.90;15.67;;;4.20;99.90;;;;;;4936825;29;20449;-69
2020/12/11 14:40:14;;;;;;;24.80;16.00;;;4.10;99.90;;;;;;4936830;29;20457;-69
2020/12/11 14:42:40;;;;;;;20.63;15.93;;;4.20;99.90;;;;;;4936876;29;20488;-69
2020/12/11 14:45:06;;;;;;;19.60;15.10;;;4.20;99.90;;;;;;4936486;29;20972;-69
2020/12/11 14:47:35;;;;;;;19.03;13.70;;;4.30;99.90;;;;;;4937530;29;20452;-69
2020/12/11 14:50:04;;;;;;;16.77;12.33;;;4.40;99.90;;;;;;4937444;29;20476;-69
2020/12/11 14:52:30;;;;;;;23.80;11.87;;;4.40;99.90;;;;;;4937482;29;20477;-69
2020/12/11 14:54:57;;;;;;;12.60;9.73;;;4.50;99.90;;;;;;4936895;29;20452;-69
2020/12/11 14:57:23;;;;;;;12.87;9.80;;;4.60;99.90;;;;;;4936649;29;20433;-69
2020/12/11 14:59:49;;;;;;;11.50;10.27;;;4.70;99.90;;;;;;4936569;29;20539;-70
2020/12/11 15:02:16;;;;;;;13.37;10.83;;;4.80;99.90;;;;;;4936212;29;20480;-69
2020/12/11 15:04:43;;;;;;;14.23;9.67;;;4.80;99.90;;;;;;4936575;29;20488;-69
2020/12/11 15:07:10;;;;;;;13.60;11.40;;;4.80;99.90;;;;;;4936598;29;20460;-69
2020/12/11 15:09:36;;;;;;;13.37;11.87;;;4.80;99.90;;;;;;4936677;29;20562;-69
2020/12/11 15:12:02;;;;;;;16.10;13.60;;;4.80;99.90;;;;;;4936363;29;20551;-70
2020/12/11 15:14:28;;;;;;;17.60;13.70;;;4.70;99.90;;;;;;4937517;29;20953;-70
2020/12/11 15:16:54;;;;;;;16.83;13.70;;;4.50;99.90;;;;;;4940425;29;20460;-69
2020/12/11 15:19:20;;;;;;;17.83;13.23;;;4.50;99.90;;;;;;4940263;29;20456;-69
2020/12/11 15:21:47;;;;;;;17.33;14.20;;;4.40;99.90;;;;;;4939736;29;20948;-69
2020/12/11 15:24:16;;;;;;;17.27;13.57;;;4.40;99.90;;;;;;4940457;29;20448;-69
2020/12/11 15:26:42;;;;;;;19.37;15.80;;;4.30;99.90;;;;;;4940165;29;20488;-69
2020/12/11 15:29:08;;;;;;;18.40;14.37;;;4.30;99.90;;;;;;4940051;29;20487;-68
2020/12/11 15:31:34;;;;;;;18.37;14.00;;;4.30;99.90;;;;;;4939722;29;20476;-69
2020/12/11 15:34:01;;;;;;;16.97;14.00;;;4.30;99.90;;;;;;4940170;29;20460;-68
2020/12/11 15:36:27;;;;;;;21.57;14.50;;;4.20;99.90;;;;;;4940052;29;20460;-69
2020/12/11 15:38:54;;;;;;;18.23;13.20;;;4.10;99.90;;;;;;4939888;29;20448;-69
2020/12/11 15:41:20;;;;;;;17.47;13.33;;;4.10;99.90;;;;;;4939807;29;20477;-69
2020/12/11 15:43:47;;;;;;;17.93;14.40;;;4.10;99.90;;;;;;4939547;29;20452;-70
2020/12/11 15:46:13;;;;;;;18.83;13.63;;;4.20;99.90;;;;;;4939959;29;20467;-69
2020/12/11 15:48:40;;;;;;;17.23;13.40;;;4.20;99.90;;;;;;4939747;29;20512;-68
2020/12/11 15:51:09;;;;;;;16.73;13.73;;;4.20;99.90;;;;;;4939428;29;20484;-69
2020/12/11 15:53:35;;;;;;;17.37;12.90;;;4.20;99.90;;;;;;4940133;29;20452;-69
2020/12/11 15:56:02;;;;;;;19.50;14.33;;;4.20;99.90;;;;;;4939955;29;20531;-68
2020/12/11 15:58:28;;;;;;;16.20;13.20;;;4.10;99.90;;;;;;4939912;29;20448;-67
2020/12/11 16:00:55;;;;;;;16.00;12.27;;;4.00;99.90;;;;;;4939330;29;21106;-68
2020/12/11 16:03:21;;;;;;;16.23;12.30;;;4.00;99.90;;;;;;4939592;29;20515;-68
2020/12/11 16:05:47;;;;;;;14.77;12.30;;;3.90;99.90;;;;;;4939813;29;20463;-67
2020/12/11 16:08:15;;;;;;;15.87;12.33;;;4.00;99.90;;;;;;4939403;29;20892;-67
2020/12/11 16:10:41;;;;;;;17.50;11.13;;;3.90;99.90;;;;;;4939011;29;20992;-67
2020/12/11 16:13:08;;;;;;;15.00;12.00;;;3.90;99.90;;;;;;4939757;29;20453;-67
2020/12/11 16:15:34;;;;;;;16.77;12.80;;;3.70;99.90;;;;;;4939617;29;20463;-68
2020/12/11 16:18:00;;;;;;;15.80;11.37;;;3.70;99.90;;;;;;4939434;29;20452;-68
2020/12/11 16:20:26;;;;;;;15.80;11.90;;;3.70;99.90;;;;;;4939179;29;20453;-68
2020/12/11 16:22:52;;;;;;;18.57;12.30;;;3.70;99.90;;;;;;4939567;29;20460;-68
2020/12/11 16:25:19;;;;;;;14.67;12.00;;;3.70;99.90;;;;;;4940847;29;20529;-69
2020/12/11 16:27:45;;;;;;;15.60;12.70;;;3.70;99.90;;;;;;4939068;29;20452;-69
2020/12/11 16:30:12;;;;;;;18.37;12.90;;;3.70;99.90;;;;;;4939146;29;20887;-68
2020/12/11 16:32:38;;;;;;;16.63;12.60;;;3.70;99.90;;;;;;4939452;29;20472;-68
2020/12/11 16:35:06;;;;;;;21.43;13.73;;;3.60;99.90;;;;;;4939176;29;20457;-68
2020/12/11 16:37:32;;;;;;;14.67;11.63;;;3.60;99.90;;;;;;4939103;29;20820;-68
2020/12/11 16:39:58;;;;;;;17.70;13.10;;;3.60;99.90;;;;;;4939039;29;20452;-69
2020/12/11 16:42:25;;;;;;;19.17;13.57;;;3.60;99.90;;;;;;4938707;29;20476;-67
2020/12/11 16:44:57;;;;;;;17.20;12.53;;;3.60;99.90;;;;;;4938758;29;20456;-68
2020/12/11 16:47:27;;;;;;;14.80;12.27;;;3.50;99.90;;;;;;4940676;29;20493;-68
2020/12/11 16:49:53;;;;;;;16.17;11.70;;;3.50;99.90;;;;;;4941112;29;20539;-68
2020/12/11 16:52:19;;;;;;;13.93;10.90;;;3.50;99.90;;;;;;4940184;29;20472;-68
2020/12/11 16:54:46;;;;;;;16.20;11.40;;;3.50;99.90;;;;;;4940501;29;20926;-68
2020/12/11 16:57:12;;;;;;;13.83;11.37;;;3.50;99.90;;;;;;4939007;29;20462;-68
2020/12/11 16:59:44;;;;;;;14.27;11.70;;;3.60;99.90;;;;;;4938567;29;20945;-69
2020/12/11 17:02:11;;;;;;;13.10;10.73;;;3.60;99.90;;;;;;4939935;29;20607;-67
2020/12/11 17:07:20;;;;;;;17.10;12.10;;;3.60;99.90;;;;;;4937856;29;20445;-68
2020/12/11 17:09:48;;;;;;;17.17;11.70;;;3.50;99.90;;;;;;4939960;29;20878;-68
2020/12/11 17:12:16;;;;;;;16.07;11.40;;;3.50;99.90;;;;;;4949884;29;20500;-67
2020/12/11 17:14:43;;;;;;;19.87;12.47;;;3.60;99.90;;;;;;4939914;29;20463;-69
2020/12/11 17:17:11;;;;;;;15.67;12.10;;;3.60;99.90;;;;;;4938203;29;20452;-71
2020/12/11 17:19:39;;;;;;;12.50;10.77;;;3.60;99.90;;;;;;4938378;29;20504;-66
2020/12/11 17:22:08;;;;;;;14.50;11.77;;;3.70;99.90;;;;;;4937913;29;20883;-66
2020/12/11 17:24:34;;;;;;;15.07;11.33;;;4.00;99.90;;;;;;4938394;29;20448;-69
2020/12/11 17:27:02;;;;;;;14.70;11.40;;;3.90;99.90;;;;;;4937812;29;20948;-67
2020/12/11 17:29:29;;;;;;;14.60;12.00;;;3.90;99.90;;;;;;4950333;29;20480;-69
2020/12/11 17:32:15;;;;;;;13.30;10.70;;;4.00;99.90;;;;;;4951356;29;20476;-70
2020/12/11 17:34:51;;;;;;;13.37;11.27;;;4.00;99.90;;;;;;4952563;29;20928;-69
2020/12/11 17:37:19;;;;;;;14.53;12.37;;;4.00;99.90;;;;;;4950088;29;20441;-70
2020/12/11 17:39:45;;;;;;;12.83;10.73;;;4.00;99.90;;;;;;4938424;29;20449;-69
2020/12/11 17:42:12;;;;;;;22.80;12.27;;;3.90;99.90;;;;;;4938685;29;20476;-69
2020/12/11 17:44:38;;;;;;;15.10;11.87;;;3.90;99.90;;;;;;4938347;29;20488;-69
2020/12/11 17:47:06;;;;;;;14.00;11.97;;;3.90;99.90;;;;;;4938663;29;20468;-69
2020/12/11 17:49:32;;;;;;;15.93;11.83;;;3.90;99.90;;;;;;4937761;29;20491;-69
2020/12/11 17:52:02;;;;;;;14.50;11.97;;;3.90;99.90;;;;;;4938814;29;20805;-67
2020/12/11 17:54:29;;;;;;;17.70;12.60;;;4.00;99.90;;;;;;4937985;29;20459;-67
2020/12/11 17:56:56;;;;;;;17.90;12.00;;;3.90;99.90;;;;;;4938357;29;20457;-70
2020/12/11 17:59:22;;;;;;;17.27;12.40;;;4.00;99.90;;;;;;4937619;29;20456;-70
2020/12/11 18:01:51;;;;;;;14.60;11.90;;;3.90;99.90;;;;;;4938497;29;21015;-70
2020/12/11 18:04:17;;;;;;;14.43;11.77;;;3.90;99.90;;;;;;4938128;29;20456;-69
2020/12/11 18:06:44;;;;;;;15.47;11.90;;;3.90;99.90;;;;;;4938673;29;20460;-70
2020/12/11 18:09:11;;;;;;;17.90;13.13;;;4.00;99.90;;;;;;4938480;29;20485;-70
2020/12/11 18:11:37;;;;;;;17.30;12.80;;;3.90;99.90;;;;;;4940777;29;20528;-70
2020/12/11 18:14:04;;;;;;;15.20;12.60;;;3.90;99.90;;;;;;4939273;29;20448;-71
2020/12/11 18:16:31;;;;;;;18.10;12.80;;;3.80;99.90;;;;;;4941554;29;20543;-69
2020/12/11 18:18:58;;;;;;;15.60;11.67;;;3.90;99.90;;;;;;4937596;29;20544;-69